ウィレムスタッド の空港の天気 - METARとTAF

キュラソー/ハト国際空港 ( TNCC / CUR ) - ウィレムスタッド (キュラソー島)
飛行場実況気象(Metar)
観測時間11/21 08:00 AST (11/21 12:00 UTC)
風向・風速東 3m/s
視程10km以上
天気現象
少しの雲 雲底高度 490m
気温29℃
湿度74%
気圧1012hPa
METARTNCC 211200Z 10005KT 9999 FEW016TCU 29/24 Q1012 NOSIG
過去の天気等 Google飛行場航空写真 Wunderground天気予報

過去48時間のMETAR

飛行場予報(TAF)
発表時間: 11/21 07:15 AST (11/21 11:15 UTC)
予報対象時間: 21日8時 AST ~ 22日8時 AST
風向・風速不定 3m/s
視程10km以上
全天の4割程度の雲 雲底高度 610m
21日8時 AST ~ 21日17時 AST に 確率 40% で一時的に
視程5000m
天気現象しゅう雨
全天の8割程度の雲 雲底高度 460m
21日9時 AST ~ 21日10時 AST に徐々に
風向・風速東 5m/s
TAF TNCC 211115Z 2112/2212 VRB05KT 9999 SCT020
PROB40 TEMPO 2112/2121 5000 SHRA BKN015
BECMG 2113/2114 08010KT